Time,TemperatureF,DewpointF,PressureIn,WindDirection,WindDirectionDegrees,WindSpeedMPH,WindSpeedGustMPH,Humidity,HourlyPrecipIn,Conditions,Clouds,dailyrainin,SoftwareType,DateUTC
2013-09-17 00:06:00,43.1,40.0,30.26,ESE,110,6.0,6.0,88,0.00,,,0.00,weatherlink.com 1.10,2013-09-17 04:06:00,
2013-09-17 00:21:00,43.3,40.0,30.27,ESE,111,6.0,8.0,87,0.00,,,0.00,weatherlink.com 1.10,2013-09-17 04:21:00,
2013-09-17 00:36:00,43.2,39.0,30.27,ESE,103,5.0,8.0,86,0.00,,,0.00,weatherlink.com 1.10,2013-09-17 04:36:00,
2013-09-17 00:51:00,43.2,39.0,30.27,ESE,109,4.0,9.0,85,0.00,,,0.00,weatherlink.com 1.10,2013-09-17 04:51:00,
2013-09-17 01:06:00,43.1,39.0,30.28,ESE,107,6.0,8.0,85,0.00,,,0.00,weatherlink.com 1.10,2013-09-17 05:06:00,
2013-09-17 01:21:00,43.0,39.0,30.28,NE,51,2.0,9.0,85,0.00,,,0.00,weatherlink.com 1.10,2013-09-17 05:21:00,
2013-09-17 01:36:00,43.0,39.0,30.28,East,98,6.0,8.0,85,0.00,,,0.00,weatherlink.com 1.10,2013-09-17 05:36:00,
2013-09-17 01:51:00,42.9,39.0,30.28,East,94,4.0,7.0,85,0.00,,,0.00,weatherlink.com 1.10,2013-09-17 05:51:00,
2013-09-17 02:06:00,42.6,38.0,30.28,East,88,4.0,6.0,85,0.00,,,0.00,weatherlink.com 1.10,2013-09-17 06:06:00,
2013-09-17 02:21:00,42.5,38.0,30.29,East,84,4.0,7.0,85,0.00,,,0.00,weatherlink.com 1.10,2013-09-17 06:21:00,
2013-09-17 02:36:00,42.3,38.0,30.29,ESE,112,2.0,5.0,85,0.00,,,0.00,weatherlink.com 1.10,2013-09-17 06:36:00,
2013-09-17 02:51:00,41.8,38.0,30.30,ESE,112,1.0,4.0,86,0.00,,,0.00,weatherlink.com 1.10,2013-09-17 06:51:00,
2013-09-17 03:06:00,41.3,38.0,30.30,ESE,112,0.0,1.0,87,0.00,,,0.00,weatherlink.com 1.10,2013-09-17 07:06:00,
2013-09-17 03:21:00,40.6,38.0,30.30,ESE,112,1.0,2.0,89,0.00,,,0.00,weatherlink.com 1.10,2013-09-17 07:21:00,
2013-09-17 03:36:00,40.4,38.0,30.30,ESE,112,0.0,0.0,89,0.00,,,0.00,weatherlink.com 1.10,2013-09-17 07:36:00,
2013-09-17 03:51:00,40.1,38.0,30.30,ESE,112,0.0,2.0,90,0.00,,,0.00,weatherlink.com 1.10,2013-09-17 07:51:00,
2013-09-17 04:06:00,39.5,37.0,30.31,ESE,113,0.0,1.0,91,0.00,,,0.00,weatherlink.com 1.10,2013-09-17 08:06:00,
2013-09-17 04:21:00,38.6,36.0,30.31,ESE,113,0.0,0.0,91,0.00,,,0.00,weatherlink.com 1.10,2013-09-17 08:21:00,
2013-09-17 04:36:00,37.8,36.0,30.30,ESE,113,0.0,1.0,93,0.00,,,0.00,weatherlink.com 1.10,2013-09-17 08:36:00,
2013-09-17 04:51:00,37.4,36.0,30.31,ESE,113,0.0,0.0,94,0.00,,,0.00,weatherlink.com 1.10,2013-09-17 08:51:00,
2013-09-17 05:06:00,37.1,36.0,30.32,ESE,113,0.0,1.0,95,0.00,,,0.00,weatherlink.com 1.10,2013-09-17 09:06:00,
2013-09-17 05:21:00,36.9,36.0,30.32,ESE,113,0.0,2.0,95,0.00,,,0.00,weatherlink.com 1.10,2013-09-17 09:21:00,
2013-09-17 05:36:00,36.9,36.0,30.32,ESE,113,0.0,1.0,95,0.00,,,0.00,weatherlink.com 1.10,2013-09-17 09:36:00,
2013-09-17 05:51:00,36.8,36.0,30.32,ESE,113,0.0,1.0,96,0.00,,,0.00,weatherlink.com 1.10,2013-09-17 09:51:00,
2013-09-17 06:07:00,36.7,36.0,30.33,ESE,113,0.0,0.0,96,0.00,,,0.00,weatherlink.com 1.10,2013-09-17 10:07:00,
2013-09-17 06:22:00,36.8,36.0,30.33,ESE,113,0.0,2.0,97,0.00,,,0.00,weatherlink.com 1.10,2013-09-17 10:22:00,
2013-09-17 06:37:00,36.8,36.0,30.34,ESE,113,0.0,2.0,96,0.00,,,0.00,weatherlink.com 1.10,2013-09-17 10:37:00,
2013-09-17 06:52:00,36.4,35.0,30.34,ESE,113,2.0,2.0,96,0.00,,,0.00,weatherlink.com 1.10,2013-09-17 10:52:00,
2013-09-17 07:07:00,36.4,35.0,30.35,ESE,113,0.0,2.0,96,0.00,,,0.00,weatherlink.com 1.10,2013-09-17 11:07:00,
2013-09-17 07:22:00,36.6,36.0,30.36,ESE,113,1.0,2.0,97,0.00,,,0.00,weatherlink.com 1.10,2013-09-17 11:22:00,
2013-09-17 07:37:00,37.5,37.0,30.36,ESE,113,0.0,0.0,98,0.00,,,0.00,weatherlink.com 1.10,2013-09-17 11:37:00,
2013-09-17 07:52:00,39.4,39.0,30.36,ESE,113,0.0,0.0,98,0.00,,,0.00,weatherlink.com 1.10,2013-09-17 11:52:00,
2013-09-17 08:07:00,41.8,41.0,30.37,ESE,113,0.0,0.0,98,0.00,,,0.00,weatherlink.com 1.10,2013-09-17 12:07:00,
2013-09-17 08:22:00,43.6,42.0,30.37,ESE,113,0.0,0.0,95,0.00,,,0.00,weatherlink.com 1.10,2013-09-17 12:22:00,
2013-09-17 08:37:00,44.0,42.0,30.38,WSW,246,1.0,4.0,93,0.00,,,0.00,weatherlink.com 1.10,2013-09-17 12:37:00,
2013-09-17 08:52:00,44.4,42.0,30.38,WSW,244,2.0,5.0,92,0.00,,,0.00,weatherlink.com 1.10,2013-09-17 12:52:00,
2013-09-17 09:07:00,45.4,43.0,30.38,West,281,2.0,4.0,91,0.00,,,0.00,weatherlink.com 1.10,2013-09-17 13:07:00,
2013-09-17 09:22:00,45.7,43.0,30.39,WSW,238,4.0,5.0,90,0.00,,,0.00,weatherlink.com 1.10,2013-09-17 13:22:00,
2013-09-17 09:37:00,46.7,43.0,30.39,SW,227,0.0,5.0,88,0.00,,,0.00,weatherlink.com 1.10,2013-09-17 13:37:00,
2013-09-17 09:52:00,47.8,43.0,30.39,NE,40,1.0,4.0,84,0.00,,,0.00,weatherlink.com 1.10,2013-09-17 13:52:00,
2013-09-17 10:07:00,49.1,42.0,30.39,ESE,119,0.0,5.0,77,0.00,,,0.00,weatherlink.com 1.10,2013-09-17 14:07:00,
2013-09-17 10:22:00,51.3,42.0,30.39,SW,220,1.0,5.0,70,0.00,,,0.00,weatherlink.com 1.10,2013-09-17 14:22:00,
2013-09-17 10:37:00,52.6,42.0,30.39,SE,141,0.0,5.0,68,0.00,,,0.00,weatherlink.com 1.10,2013-09-17 14:37:00,
2013-09-17 10:52:00,53.1,44.0,30.39,WSW,248,0.0,4.0,71,0.00,,,0.00,weatherlink.com 1.10,2013-09-17 14:52:00,
2013-09-17 11:07:00,51.5,43.0,30.39,South,187,0.0,7.0,74,0.00,,,0.00,weatherlink.com 1.10,2013-09-17 15:07:00,
2013-09-17 11:22:00,52.7,43.0,30.38,WSW,246,2.0,5.0,69,0.00,,,0.00,weatherlink.com 1.10,2013-09-17 15:22:00,
2013-09-17 11:37:00,52.9,43.0,30.38,WSW,238,2.0,6.0,69,0.00,,,0.00,weatherlink.com 1.10,2013-09-17 15:37:00,
2013-09-17 11:52:00,54.2,45.0,30.38,WSW,246,0.0,4.0,70,0.00,,,0.00,weatherlink.com 1.10,2013-09-17 15:52:00,
2013-09-17 12:07:00,54.5,44.0,30.37,NW,315,2.0,5.0,68,0.00,,,0.00,weatherlink.com 1.10,2013-09-17 16:07:00,
2013-09-17 12:22:00,54.9,45.0,30.36,NW,315,2.0,6.0,70,0.00,,,0.00,weatherlink.com 1.10,2013-09-17 16:22:00,
2013-09-17 12:37:00,54.8,44.0,30.36,SW,228,4.0,10.0,67,0.00,,,0.00,weatherlink.com 1.10,2013-09-17 16:37:00,
2013-09-17 12:52:00,56.2,46.0,30.35,WNW,292,4.0,6.0,68,0.00,,,0.00,weatherlink.com 1.10,2013-09-17 16:52:00,
2013-09-17 13:08:00,55.8,44.0,30.35,WNW,300,6.0,9.0,64,0.00,,,0.00,weatherlink.com 1.10,2013-09-17 17:08:00,
2013-09-17 13:23:00,55.6,45.0,30.35,WSW,250,8.0,10.0,68,0.00,,,0.00,weatherlink.com 1.10,2013-09-17 17:23:00,
2013-09-17 13:38:00,56.4,44.0,30.34,WSW,256,5.0,8.0,64,0.00,,,0.00,weatherlink.com 1.10,2013-09-17 17:38:00,
2013-09-17 13:53:00,56.9,45.0,30.34,West,263,4.0,9.0,65,0.00,,,0.00,weatherlink.com 1.10,2013-09-17 17:53:00,
2013-09-17 14:08:00,57.6,45.0,30.33,WSW,238,0.0,9.0,63,0.00,,,0.00,weatherlink.com 1.10,2013-09-17 18:08:00,
2013-09-17 14:23:00,57.9,45.0,30.32,WSW,240,6.0,9.0,63,0.00,,,0.00,weatherlink.com 1.10,2013-09-17 18:23:00,
2013-09-17 14:38:00,58.5,46.0,30.32,NW,304,5.0,9.0,64,0.00,,,0.00,weatherlink.com 1.10,2013-09-17 18:38:00,
2013-09-17 14:53:00,58.3,45.0,30.32,WNW,286,1.0,8.0,62,0.00,,,0.00,weatherlink.com 1.10,2013-09-17 18:53:00,
2013-09-17 15:08:00,59.6,46.0,30.31,WSW,244,4.0,8.0,61,0.00,,,0.00,weatherlink.com 1.10,2013-09-17 19:08:00,
2013-09-17 15:23:00,60.1,46.0,30.30,NW,304,2.0,6.0,61,0.00,,,0.00,weatherlink.com 1.10,2013-09-17 19:23:00,
2013-09-17 15:38:00,60.0,46.0,30.30,NW,321,3.0,8.0,60,0.00,,,0.00,weatherlink.com 1.10,2013-09-17 19:38:00,
2013-09-17 15:53:00,60.8,46.0,30.29,WSW,243,4.0,7.0,59,0.00,,,0.00,weatherlink.com 1.10,2013-09-17 19:53:00,
2013-09-17 16:08:00,60.8,46.0,30.29,NE,54,2.0,5.0,59,0.00,,,0.00,weatherlink.com 1.10,2013-09-17 20:08:00,
2013-09-17 16:23:00,62.2,47.0,30.28,NNE,33,0.0,5.0,57,0.00,,,0.00,weatherlink.com 1.10,2013-09-17 20:23:00,
2013-09-17 16:38:00,61.8,47.0,30.28,NNW,330,5.0,7.0,58,0.00,,,0.00,weatherlink.com 1.10,2013-09-17 20:38:00,
2013-09-17 16:53:00,60.5,45.0,30.27,WSW,256,3.0,7.0,58,0.00,,,0.00,weatherlink.com 1.10,2013-09-17 20:53:00,
2013-09-17 17:08:00,63.1,46.0,30.27,NE,51,0.0,4.0,54,0.00,,,0.00,weatherlink.com 1.10,2013-09-17 21:08:00,
2013-09-17 17:23:00,67.2,47.0,30.27,NE,50,0.0,2.0,49,0.00,,,0.00,weatherlink.com 1.10,2013-09-17 21:23:00,
2013-09-17 17:38:00,66.1,46.0,30.27,East,79,0.0,3.0,49,0.00,,,0.00,weatherlink.com 1.10,2013-09-17 21:38:00,
2013-09-17 17:53:00,66.7,48.0,30.26,ESE,123,0.0,4.0,52,0.00,,,0.00,weatherlink.com 1.10,2013-09-17 21:53:00,
2013-09-17 18:08:00,68.3,48.0,30.26,ESE,123,0.0,2.0,49,0.00,,,0.00,weatherlink.com 1.10,2013-09-17 22:08:00,
2013-09-17 18:23:00,68.7,49.0,30.25,ESE,105,1.0,4.0,49,0.00,,,0.00,weatherlink.com 1.10,2013-09-17 22:23:00,
2013-09-17 18:38:00,65.9,48.0,30.25,ESE,113,1.0,4.0,53,0.00,,,0.00,weatherlink.com 1.10,2013-09-17 22:38:00,
2013-09-17 19:08:00,58.9,48.0,30.24,ESE,116,1.0,4.0,68,0.00,,,0.00,weatherlink.com 1.10,2013-09-17 23:08:00,
2013-09-17 19:23:00,56.6,47.0,30.24,SE,125,4.0,4.0,70,0.00,,,0.00,weatherlink.com 1.10,2013-09-17 23:23:00,
2013-09-17 19:38:00,54.7,46.0,30.23,ESE,107,4.0,5.0,73,0.00,,,0.00,weatherlink.com 1.10,2013-09-17 23:38:00,
2013-09-17 19:53:00,53.7,46.0,30.24,SE,125,1.0,3.0,75,0.00,,,0.00,weatherlink.com 1.10,2013-09-17 23:53:00,
2013-09-17 20:08:00,53.1,46.0,30.24,SE,124,0.0,2.0,76,0.00,,,0.00,weatherlink.com 1.10,2013-09-18 00:08:00,
2013-09-17 20:23:00,52.1,46.0,30.24,ESE,123,0.0,2.0,79,0.00,,,0.00,weatherlink.com 1.10,2013-09-18 00:23:00,
2013-09-17 20:38:00,51.2,45.0,30.24,ESE,123,0.0,1.0,80,0.00,,,0.00,weatherlink.com 1.10,2013-09-18 00:38:00,
2013-09-17 20:53:00,50.4,45.0,30.24,SSE,163,0.0,2.0,83,0.00,,,0.00,weatherlink.com 1.10,2013-09-18 00:53:00,
2013-09-17 21:08:00,49.7,45.0,30.24,SSE,163,0.0,0.0,84,0.00,,,0.00,weatherlink.com 1.10,2013-09-18 01:08:00,
2013-09-17 21:23:00,48.7,45.0,30.24,SSE,163,0.0,0.0,87,0.00,,,0.00,weatherlink.com 1.10,2013-09-18 01:23:00,
2013-09-17 21:38:00,47.8,45.0,30.23,ESE,121,2.0,4.0,88,0.00,,,0.00,weatherlink.com 1.10,2013-09-18 01:38:00,
2013-09-17 21:53:00,47.4,45.0,30.23,ESE,119,2.0,3.0,90,0.00,,,0.00,weatherlink.com 1.10,2013-09-18 01:53:00,
2013-09-17 22:08:00,46.9,44.0,30.23,ESE,113,1.0,4.0,90,0.00,,,0.00,weatherlink.com 1.10,2013-09-18 02:08:00,
2013-09-17 22:23:00,46.8,44.0,30.23,ESE,113,0.0,1.0,91,0.00,,,0.00,weatherlink.com 1.10,2013-09-18 02:23:00,
2013-09-17 22:38:00,47.1,45.0,30.23,ESE,119,1.0,2.0,92,0.00,,,0.00,weatherlink.com 1.10,2013-09-18 02:38:00,
2013-09-17 22:53:00,47.5,45.0,30.23,South,173,0.0,4.0,92,0.00,,,0.00,weatherlink.com 1.10,2013-09-18 02:53:00,
2013-09-17 23:08:00,47.9,46.0,30.23,SE,128,1.0,2.0,91,0.00,,,0.00,weatherlink.com 1.10,2013-09-18 03:08:00,
2013-09-17 23:23:00,48.2,46.0,30.23,ESE,121,1.0,4.0,90,0.00,,,0.00,weatherlink.com 1.10,2013-09-18 03:23:00,
2013-09-17 23:38:00,47.9,45.0,30.23,SE,134,0.0,1.0,90,0.00,,,0.00,weatherlink.com 1.10,2013-09-18 03:38:00,
2013-09-17 23:53:00,47.7,46.0,30.22,SE,134,0.0,2.0,92,0.00,,,0.00,weatherlink.com 1.10,2013-09-18 03:53:00,